createdAt,value
2022-08-17T00:00:43.644Z,22.00
2022-08-17T00:03:43.619Z,21.90
2022-08-17T00:06:31.452Z,21.80
2022-08-17T00:09:18.359Z,21.80
2022-08-17T00:12:41.500Z,21.80
2022-08-17T00:15:13.464Z,21.80
2022-08-17T00:17:59.132Z,21.90
2022-08-17T00:20:44.819Z,21.90
2022-08-17T00:23:30.835Z,21.90
2022-08-17T00:26:44.544Z,21.80
2022-08-17T00:29:22.983Z,21.80
2022-08-17T00:33:15.855Z,21.70
2022-08-17T00:35:18.433Z,21.70
2022-08-17T00:38:06.345Z,21.60
2022-08-17T00:40:59.173Z,21.60
2022-08-17T00:43:46.643Z,21.60
2022-08-17T00:46:39.364Z,21.50
2022-08-17T00:49:26.214Z,21.50
2022-08-17T00:52:16.741Z,21.50
2022-08-17T00:55:04.817Z,21.60
2022-08-17T00:57:55.617Z,21.60
2022-08-17T01:00:45.958Z,21.60
2022-08-17T01:03:32.259Z,21.60
2022-08-17T01:06:18.353Z,21.50
2022-08-17T01:09:05.071Z,21.60
2022-08-17T01:11:54.045Z,21.60
2022-08-17T01:14:40.532Z,21.70
2022-08-17T01:17:28.582Z,21.70
2022-08-17T01:20:14.711Z,21.80
2022-08-17T01:23:01.743Z,21.70
2022-08-17T01:25:51.974Z,21.70
2022-08-17T01:28:54.602Z,21.80
2022-08-17T01:31:46.710Z,21.80
2022-08-17T01:34:42.440Z,21.90
2022-08-17T01:37:36.883Z,21.90
2022-08-17T01:40:36.047Z,21.90
2022-08-17T01:43:33.397Z,21.90
2022-08-17T01:46:28.467Z,21.90
2022-08-17T01:49:14.307Z,21.90
2022-08-17T01:52:06.633Z,21.90
2022-08-17T01:54:53.095Z,22.00
2022-08-17T01:57:38.697Z,21.90
2022-08-17T02:00:24.720Z,21.90
2022-08-17T02:03:10.708Z,21.90
2022-08-17T02:05:57.135Z,21.90
2022-08-17T02:09:03.271Z,21.90
2022-08-17T02:11:48.806Z,22.00
2022-08-17T02:14:36.118Z,22.00
2022-08-17T02:17:21.895Z,21.80
2022-08-17T02:20:10.020Z,21.70
2022-08-17T02:22:56.002Z,21.70
2022-08-17T02:25:43.800Z,21.60
2022-08-17T02:28:30.155Z,21.70
2022-08-17T02:31:15.909Z,21.70
2022-08-17T02:34:04.633Z,21.70
2022-08-17T02:36:53.389Z,21.70
2022-08-17T02:39:39.393Z,21.70
2022-08-17T02:42:33.798Z,21.60
2022-08-17T02:45:23.263Z,21.60
2022-08-17T02:48:09.046Z,21.60
2022-08-17T02:50:54.924Z,21.60
2022-08-17T02:53:41.011Z,21.60
2022-08-17T02:56:26.880Z,21.70
2022-08-17T02:59:12.870Z,21.70
2022-08-17T03:01:58.782Z,21.70
2022-08-17T03:04:44.595Z,21.70
2022-08-17T03:07:31.833Z,21.70
2022-08-17T03:10:18.382Z,21.70
2022-08-17T03:13:04.924Z,21.60
2022-08-17T03:15:51.204Z,21.60
2022-08-17T03:18:37.063Z,21.60
2022-08-17T03:21:22.860Z,21.60
2022-08-17T03:24:09.256Z,21.70
2022-08-17T03:26:55.334Z,21.70
2022-08-17T03:29:41.501Z,21.70
2022-08-17T03:32:27.011Z,21.60
2022-08-17T03:35:16.766Z,21.60
2022-08-17T03:38:05.314Z,21.60
2022-08-17T03:40:58.957Z,21.60
2022-08-17T03:43:45.540Z,21.50
2022-08-17T03:46:49.495Z,21.50
2022-08-17T03:49:53.588Z,21.50
2022-08-17T03:52:58.192Z,21.60
2022-08-17T03:56:02.512Z,21.60
2022-08-17T03:58:48.892Z,21.60
2022-08-17T04:01:34.995Z,21.50
2022-08-17T04:04:26.119Z,21.50
2022-08-17T04:07:13.876Z,21.50
2022-08-17T04:09:59.707Z,21.40
2022-08-17T04:12:52.971Z,21.30
2022-08-17T04:15:38.603Z,21.20
2022-08-17T04:18:25.998Z,21.00
2022-08-17T04:21:11.875Z,21.00
2022-08-17T04:23:58.256Z,21.00
2022-08-17T04:26:54.054Z,20.90
2022-08-17T04:29:54.724Z,20.90
2022-08-17T04:33:05.366Z,20.90
2022-08-17T04:36:02.748Z,20.80
2022-08-17T04:38:48.565Z,20.70
2022-08-17T04:41:53.042Z,20.60
2022-08-17T04:44:39.199Z,20.10
2022-08-17T04:47:24.952Z,20.30
2022-08-17T04:50:10.805Z,20.30
2022-08-17T04:52:56.803Z,20.30
2022-08-17T04:55:43.784Z,20.20
2022-08-17T04:58:29.754Z,20.20
2022-08-17T05:01:16.828Z,20.30
2022-08-17T05:04:33.130Z,20.30
2022-08-17T05:07:23.104Z,20.30
2022-08-17T05:10:10.030Z,20.30
2022-08-17T05:13:07.564Z,20.30
2022-08-17T05:15:56.414Z,20.20
2022-08-17T05:18:42.560Z,20.10
2022-08-17T05:21:29.755Z,20.10
2022-08-17T05:24:38.678Z,19.70
2022-08-17T05:27:21.319Z,19.70
2022-08-17T05:30:09.625Z,20.00
2022-08-17T05:33:01.718Z,20.00
2022-08-17T05:35:50.018Z,19.80
2022-08-17T05:38:35.971Z,19.60
2022-08-17T05:41:21.519Z,19.60
2022-08-17T05:44:07.244Z,19.80
2022-08-17T05:46:54.200Z,20.00
2022-08-17T05:49:40.167Z,20.20
2022-08-17T05:52:58.160Z,20.50
2022-08-17T05:55:51.897Z,20.20
2022-08-17T05:58:50.201Z,19.90
2022-08-17T06:02:00.327Z,19.70
2022-08-17T06:05:16.977Z,19.90
2022-08-17T06:08:20.685Z,19.80
2022-08-17T06:11:10.841Z,19.70
2022-08-17T06:14:17.913Z,19.70
2022-08-17T06:17:09.530Z,19.90
2022-08-17T06:20:00.293Z,19.80
2022-08-17T06:22:50.204Z,19.60
2022-08-17T06:25:45.316Z,19.40
2022-08-17T06:29:03.623Z,19.50
2022-08-17T06:31:54.253Z,19.70
2022-08-17T06:34:43.670Z,19.70
2022-08-17T06:37:39.265Z,19.60
2022-08-17T06:40:46.539Z,19.60
2022-08-17T06:44:03.123Z,19.60
2022-08-17T06:46:58.157Z,19.80
2022-08-17T06:49:58.134Z,19.90
2022-08-17T06:52:53.936Z,19.90
2022-08-17T06:55:50.163Z,19.80
2022-08-17T06:58:38.914Z,19.70
2022-08-17T07:01:33.393Z,19.70
2022-08-17T07:04:22.024Z,19.80
2022-08-17T07:07:29.593Z,20.10
2022-08-17T07:10:16.266Z,20.30
2022-08-17T07:13:29.426Z,20.60
2022-08-17T07:16:42.227Z,20.70
2022-08-17T07:19:33.105Z,20.80
2022-08-17T07:22:57.814Z,20.80
2022-08-17T07:25:45.962Z,20.80
2022-08-17T07:28:33.740Z,20.80
2022-08-17T07:31:20.419Z,20.90
2022-08-17T07:34:14.542Z,21.00
2022-08-17T07:37:05.391Z,21.00
2022-08-17T07:39:59.478Z,21.00
2022-08-17T07:43:23.465Z,20.90
2022-08-17T07:46:48.439Z,21.00
2022-08-17T07:49:38.042Z,20.40
2022-08-17T07:52:50.484Z,19.90
2022-08-17T07:55:41.494Z,19.90
2022-08-17T07:58:27.064Z,20.20
2022-08-17T08:01:18.479Z,20.30
2022-08-17T08:07:40.126Z,20.40
2022-08-17T08:10:35.460Z,20.90
2022-08-17T08:13:20.880Z,21.10
2022-08-17T08:16:27.054Z,21.20
2022-08-17T08:19:20.911Z,21.40
2022-08-17T08:22:11.240Z,21.60
2022-08-17T08:25:28.668Z,21.90
2022-08-17T08:28:40.302Z,22.20
2022-08-17T08:31:45.194Z,22.20
2022-08-17T08:35:01.966Z,22.20
2022-08-17T08:38:14.940Z,22.40
2022-08-17T08:41:22.354Z,22.40
2022-08-17T08:44:19.041Z,22.40
2022-08-17T08:47:18.226Z,22.50
2022-08-17T08:50:38.512Z,22.50
2022-08-17T08:53:55.819Z,22.80
2022-08-17T08:57:19.152Z,23.10
2022-08-17T08:59:58.380Z,23.10
2022-08-17T09:03:06.298Z,23.10
2022-08-17T09:06:04.240Z,23.00
2022-08-17T09:08:58.442Z,22.90
2022-08-17T09:12:17.591Z,22.90
2022-08-17T09:15:27.583Z,22.50
2022-08-17T09:19:01.700Z,22.50
2022-08-17T09:21:54.538Z,22.20
2022-08-17T09:25:06.947Z,22.00
2022-08-17T09:27:52.792Z,21.90
2022-08-17T09:30:46.553Z,21.80
2022-08-17T09:33:37.193Z,21.80
2022-08-17T09:36:29.480Z,21.80
2022-08-17T09:39:28.617Z,21.80
2022-08-17T09:42:24.173Z,21.90
2022-08-17T09:45:30.274Z,21.90
2022-08-17T09:48:39.519Z,22.00
2022-08-17T09:51:47.368Z,22.10
2022-08-17T09:54:40.364Z,22.10
2022-08-17T09:57:40.496Z,22.20
2022-08-17T10:00:34.312Z,22.20
2022-08-17T10:03:26.113Z,22.30
2022-08-17T10:06:22.135Z,22.10
2022-08-17T10:09:35.662Z,21.90
2022-08-17T10:12:21.479Z,21.70
2022-08-17T10:15:17.486Z,21.60
2022-08-17T10:18:25.633Z,21.70
2022-08-17T10:21:38.217Z,21.40
2022-08-17T10:25:21.682Z,21.30
2022-08-17T10:27:56.645Z,21.80
2022-08-17T10:30:58.046Z,21.50
2022-08-17T10:34:20.577Z,21.50
2022-08-17T10:37:15.334Z,21.30
2022-08-17T10:40:32.772Z,21.20
2022-08-17T10:44:39.682Z,21.30
2022-08-17T10:47:12.756Z,21.60
2022-08-17T10:50:38.061Z,22.00
2022-08-17T10:53:33.339Z,22.60
2022-08-17T10:56:22.403Z,22.60
2022-08-17T10:59:08.687Z,22.50
2022-08-17T11:02:10.759Z,22.80
2022-08-17T11:05:02.331Z,22.60
2022-08-17T11:07:58.614Z,22.80
2022-08-17T11:11:14.571Z,23.10
2022-08-17T11:14:27.312Z,23.50
2022-08-17T11:17:42.659Z,24.30
2022-08-17T11:20:38.910Z,24.80
2022-08-17T11:24:11.723Z,24.60
2022-08-17T11:27:19.277Z,24.10
2022-08-17T11:30:10.912Z,24.20
2022-08-17T11:32:58.469Z,24.60
2022-08-17T11:35:51.356Z,24.90
2022-08-17T11:38:57.926Z,24.90
2022-08-17T11:42:20.036Z,24.50
2022-08-17T11:45:33.911Z,24.40
2022-08-17T11:49:02.044Z,24.50
2022-08-17T11:52:04.801Z,24.90
2022-08-17T11:54:51.350Z,25.30
2022-08-17T11:57:43.092Z,26.90
2022-08-17T12:01:02.094Z,32.30
2022-08-17T12:04:00.715Z,37.30
2022-08-17T12:06:52.068Z,37.20
2022-08-17T12:09:45.587Z,39.20
2022-08-17T12:12:35.964Z,38.00
2022-08-17T12:15:37.896Z,36.20
2022-08-17T12:18:28.488Z,34.10
2022-08-17T12:21:28.944Z,33.10
2022-08-17T12:24:45.394Z,32.00
2022-08-17T12:28:04.248Z,31.20
2022-08-17T12:30:39.192Z,30.90
2022-08-17T12:33:28.624Z,30.70
2022-08-17T12:36:17.980Z,30.20
2022-08-17T12:39:12.986Z,30.00
2022-08-17T12:42:02.551Z,29.90
2022-08-17T12:44:50.764Z,30.20
2022-08-17T12:47:38.358Z,30.60
2022-08-17T12:50:28.288Z,30.90
2022-08-17T12:53:22.006Z,30.80
2022-08-17T12:56:11.993Z,30.60
2022-08-17T12:58:57.941Z,30.50
2022-08-17T13:01:43.821Z,30.40
2022-08-17T13:04:29.900Z,29.90
2022-08-17T13:07:27.165Z,30.10
2022-08-17T13:10:23.035Z,30.10
2022-08-17T13:13:22.436Z,30.00
2022-08-17T13:16:16.973Z,29.90
2022-08-17T13:19:20.223Z,29.80
2022-08-17T13:22:29.901Z,29.40
2022-08-17T13:25:16.762Z,29.00
2022-08-17T13:28:02.949Z,28.80
2022-08-17T13:30:48.520Z,28.60
2022-08-17T13:33:43.337Z,28.50
2022-08-17T13:36:33.986Z,28.50
2022-08-17T13:39:25.132Z,28.40
2022-08-17T13:42:32.459Z,28.30
2022-08-17T13:45:35.307Z,28.40
2022-08-17T13:48:28.806Z,28.20
2022-08-17T13:51:24.747Z,28.10
2022-08-17T13:54:35.506Z,28.00
2022-08-17T13:57:25.450Z,27.90
2022-08-17T14:00:18.702Z,27.80
2022-08-17T14:03:05.606Z,27.70
2022-08-17T14:05:53.005Z,27.60
2022-08-17T14:08:38.564Z,27.60
2022-08-17T14:11:24.637Z,27.50
2022-08-17T14:14:12.389Z,27.40
2022-08-17T14:16:59.081Z,27.30
2022-08-17T14:19:45.091Z,27.10
2022-08-17T14:22:33.968Z,27.00
2022-08-17T14:25:25.676Z,26.90
2022-08-17T14:28:11.331Z,26.90
2022-08-17T14:30:56.882Z,26.70
2022-08-17T14:33:42.582Z,26.70
2022-08-17T14:36:28.887Z,26.50
2022-08-17T14:39:15.621Z,26.40
2022-08-17T14:42:01.514Z,26.30
2022-08-17T14:44:47.050Z,26.20
2022-08-17T14:47:33.907Z,26.20
2022-08-17T14:50:21.238Z,26.10
2022-08-17T14:53:09.642Z,26.00
2022-08-17T14:55:55.321Z,26.00
2022-08-17T14:58:43.718Z,26.00
2022-08-17T15:01:29.466Z,26.00
2022-08-17T15:04:18.404Z,25.90
2022-08-17T15:07:04.725Z,25.90
2022-08-17T15:09:50.395Z,25.90
2022-08-17T15:12:36.806Z,25.90
2022-08-17T15:15:23.320Z,25.80
2022-08-17T15:18:09.080Z,25.80
2022-08-17T15:20:54.807Z,25.70
2022-08-17T15:23:40.729Z,25.70
2022-08-17T15:26:29.469Z,25.60
2022-08-17T15:29:15.251Z,25.50
2022-08-17T15:32:02.008Z,25.30
2022-08-17T15:34:48.879Z,25.10
2022-08-17T15:37:36.443Z,24.90
2022-08-17T15:40:22.477Z,24.70
2022-08-17T15:43:11.584Z,24.60
2022-08-17T15:46:06.899Z,24.40
2022-08-17T15:48:55.648Z,24.20
2022-08-17T15:51:41.440Z,23.80
2022-08-17T15:54:27.191Z,23.40
2022-08-17T15:57:21.111Z,22.80
2022-08-17T16:00:09.448Z,22.50
2022-08-17T16:03:39.685Z,22.30
2022-08-17T16:06:07.992Z,22.60
2022-08-17T16:08:56.068Z,22.80
2022-08-17T16:11:45.944Z,22.90
2022-08-17T16:14:38.946Z,22.90
2022-08-17T16:17:39.986Z,22.80
2022-08-17T16:20:27.190Z,22.80
2022-08-17T16:23:18.447Z,22.90
2022-08-17T16:26:06.020Z,22.90
2022-08-17T16:28:53.163Z,21.90
2022-08-17T16:31:38.856Z,21.40
2022-08-17T16:34:24.879Z,21.20
2022-08-17T16:37:11.530Z,21.40
2022-08-17T16:39:57.909Z,21.20
2022-08-17T16:42:46.112Z,21.20
2022-08-17T16:45:39.886Z,21.10
2022-08-17T16:48:25.956Z,21.00
2022-08-17T16:51:11.694Z,20.80
2022-08-17T16:53:59.348Z,20.80
2022-08-17T16:56:45.943Z,20.70
2022-08-17T16:59:42.184Z,20.70
2022-08-17T17:02:40.690Z,20.80
2022-08-17T17:05:57.601Z,20.40
2022-08-17T17:08:49.396Z,20.20
2022-08-17T17:11:39.853Z,20.40
2022-08-17T17:14:29.528Z,20.50
2022-08-17T17:17:28.855Z,20.70
2022-08-17T17:20:25.120Z,20.80
2022-08-17T17:23:55.685Z,20.80
2022-08-17T17:27:19.087Z,21.00
2022-08-17T17:30:24.204Z,21.30
2022-08-17T17:33:17.476Z,21.40
2022-08-17T17:36:23.378Z,21.40
2022-08-17T17:39:20.729Z,21.50
2022-08-17T17:42:10.669Z,21.50
2022-08-17T17:45:08.555Z,21.60
2022-08-17T17:47:54.521Z,21.50
2022-08-17T17:50:57.098Z,21.40
2022-08-17T17:53:54.485Z,21.50
2022-08-17T17:56:54.491Z,21.30
2022-08-17T17:59:57.323Z,21.40
2022-08-17T18:03:03.541Z,21.40
2022-08-17T18:06:14.991Z,21.40
2022-08-17T18:09:24.738Z,21.30
2022-08-17T18:12:25.273Z,21.10
2022-08-17T18:15:21.536Z,20.70
2022-08-17T18:18:19.827Z,20.70
2022-08-17T18:21:16.610Z,20.70
2022-08-17T18:24:04.712Z,20.80
2022-08-17T18:26:55.366Z,20.90
2022-08-17T18:29:45.019Z,21.00
2022-08-17T18:32:41.494Z,21.00
2022-08-17T18:35:30.338Z,21.00
2022-08-17T18:39:23.663Z,21.00
2022-08-17T18:42:29.952Z,20.40
2022-08-17T18:45:36.562Z,20.40
2022-08-17T18:48:52.811Z,20.60
2022-08-17T18:51:43.258Z,20.70
2022-08-17T18:54:30.387Z,20.80
2022-08-17T18:57:35.811Z,20.80
2022-08-17T19:00:40.477Z,20.80
2022-08-17T19:03:27.027Z,20.70
2022-08-17T19:06:39.831Z,20.70
2022-08-17T19:09:34.647Z,20.40
2022-08-17T19:12:33.243Z,19.90
2022-08-17T19:15:30.197Z,19.70
2022-08-17T19:18:21.691Z,19.80
2022-08-17T19:21:19.730Z,20.10
2022-08-17T19:24:13.976Z,20.30
2022-08-17T19:27:15.566Z,20.30
2022-08-17T19:30:11.776Z,20.40
2022-08-17T19:32:58.471Z,20.40
2022-08-17T19:36:03.392Z,20.40
2022-08-17T19:39:18.261Z,20.40
2022-08-17T19:42:27.993Z,20.40
2022-08-17T19:45:26.188Z,20.30
2022-08-17T19:48:27.936Z,20.30
2022-08-17T19:51:33.692Z,20.30
2022-08-17T19:54:41.861Z,20.20
2022-08-17T19:57:44.259Z,20.20
2022-08-17T20:00:31.344Z,20.20
2022-08-17T20:03:48.060Z,19.70
2022-08-17T20:06:37.302Z,19.80
2022-08-17T20:09:40.101Z,19.90
2022-08-17T20:12:36.663Z,20.00
2022-08-17T20:15:30.952Z,20.10
2022-08-17T20:18:45.593Z,20.00
2022-08-17T20:21:42.790Z,20.10
2022-08-17T20:24:32.409Z,20.00
2022-08-17T20:27:31.285Z,20.00
2022-08-17T20:30:24.892Z,19.90
2022-08-17T20:33:23.174Z,19.90
2022-08-17T20:36:19.599Z,19.90
2022-08-17T20:39:05.840Z,19.80
2022-08-17T20:42:19.867Z,19.70
2022-08-17T20:45:40.836Z,19.60
2022-08-17T20:48:38.994Z,19.60
2022-08-17T20:51:39.580Z,19.60
2022-08-17T20:54:46.720Z,19.50
2022-08-17T20:57:32.776Z,19.40
2022-08-17T21:00:30.891Z,19.40
2022-08-17T21:03:26.749Z,19.40
2022-08-17T21:06:17.229Z,19.40
2022-08-17T21:09:29.816Z,19.40
2022-08-17T21:12:51.497Z,19.40
2022-08-17T21:15:54.895Z,19.30
2022-08-17T21:19:25.210Z,19.30
2022-08-17T21:22:32.617Z,19.30
2022-08-17T21:25:42.339Z,19.30
2022-08-17T21:28:37.426Z,19.30
2022-08-17T21:31:48.939Z,19.20
2022-08-17T21:34:38.438Z,19.20
2022-08-17T21:37:30.703Z,19.20
2022-08-17T21:40:27.872Z,19.20
2022-08-17T21:43:23.291Z,19.10
2022-08-17T21:46:22.290Z,19.10
2022-08-17T21:49:13.672Z,19.10
2022-08-17T21:52:00.400Z,19.10
2022-08-17T21:54:58.420Z,19.10
2022-08-17T21:57:52.922Z,18.90
2022-08-17T22:01:34.738Z,18.90
2022-08-17T22:04:28.997Z,18.80
2022-08-17T22:07:14.865Z,18.80
2022-08-17T22:10:00.652Z,18.80
2022-08-17T22:13:22.004Z,18.90
2022-08-17T22:16:28.489Z,18.90
2022-08-17T22:19:15.567Z,18.80
2022-08-17T22:22:11.147Z,18.80
2022-08-17T22:25:08.558Z,18.80
2022-08-17T22:28:00.141Z,18.40
2022-08-17T22:31:04.939Z,18.20
2022-08-17T22:34:02.359Z,18.00
2022-08-17T22:36:48.326Z,17.80
2022-08-17T22:39:37.452Z,17.80
2022-08-17T22:42:23.142Z,17.70
2022-08-17T22:45:09.059Z,17.60
2022-08-17T22:47:57.143Z,17.60
2022-08-17T22:50:42.732Z,17.60
2022-08-17T22:53:48.004Z,17.60
2022-08-17T22:57:18.655Z,17.70
2022-08-17T23:00:06.740Z,17.80
2022-08-17T23:03:25.995Z,17.60
2022-08-17T23:06:12.052Z,17.50
2022-08-17T23:08:58.143Z,17.50
2022-08-17T23:11:50.025Z,17.50
2022-08-17T23:14:40.958Z,17.50
2022-08-17T23:17:37.194Z,17.40
2022-08-17T23:20:23.207Z,17.40
2022-08-17T23:23:11.748Z,17.40
2022-08-17T23:25:57.446Z,17.40
2022-08-17T23:28:43.817Z,17.40
2022-08-17T23:31:33.036Z,17.50
2022-08-17T23:34:19.006Z,17.40
2022-08-17T23:37:05.055Z,17.50
2022-08-17T23:39:50.969Z,17.80
2022-08-17T23:42:42.014Z,17.90
2022-08-17T23:45:32.581Z,18.00
2022-08-17T23:48:35.416Z,18.10
2022-08-17T23:51:35.778Z,18.10
2022-08-17T23:54:33.593Z,18.10
2022-08-17T23:57:20.745Z,18.20
